sensor_id;sensor_type;location;lat;lon;timestamp;P1;durP1;ratioP1;P2;durP2;ratioP2
62673;SDS011;62269;47.594;17.638;2022-12-07T00:00:31;17.87;;;15.98;;
62673;SDS011;62269;47.594;17.638;2022-12-07T00:01:19;18.30;;;16.40;;
62673;SDS011;62269;47.594;17.638;2022-12-07T00:02:07;18.58;;;16.60;;
62673;SDS011;62269;47.594;17.638;2022-12-07T00:02:54;17.12;;;15.32;;
62673;SDS011;62269;47.594;17.638;2022-12-07T00:03:42;18.12;;;15.52;;
62673;SDS011;62269;47.594;17.638;2022-12-07T00:04:31;17.20;;;15.45;;
62673;SDS011;62269;47.594;17.638;2022-12-07T00:05:17;17.98;;;15.98;;
62673;SDS011;62269;47.594;17.638;2022-12-07T00:06:06;18.35;;;16.10;;
62673;SDS011;62269;47.594;17.638;2022-12-07T00:06:54;18.40;;;16.50;;
62673;SDS011;62269;47.594;17.638;2022-12-07T00:07:41;17.45;;;15.65;;
62673;SDS011;62269;47.594;17.638;2022-12-07T00:08:28;17.73;;;15.80;;
62673;SDS011;62269;47.594;17.638;2022-12-07T00:09:16;17.37;;;15.52;;
62673;SDS011;62269;47.594;17.638;2022-12-07T00:10:04;17.77;;;15.65;;
62673;SDS011;62269;47.594;17.638;2022-12-07T00:10:51;18.10;;;16.20;;
62673;SDS011;62269;47.594;17.638;2022-12-07T00:11:38;19.60;;;16.87;;
62673;SDS011;62269;47.594;17.638;2022-12-07T00:12:25;17.92;;;15.95;;
62673;SDS011;62269;47.594;17.638;2022-12-07T00:14:19;18.12;;;16.23;;
62673;SDS011;62269;47.594;17.638;2022-12-07T00:15:07;17.95;;;16.10;;
62673;SDS011;62269;47.594;17.638;2022-12-07T00:15:54;19.25;;;17.25;;
62673;SDS011;62269;47.594;17.638;2022-12-07T00:16:41;18.15;;;16.25;;
62673;SDS011;62269;47.594;17.638;2022-12-07T00:17:29;19.20;;;16.33;;
62673;SDS011;62269;47.594;17.638;2022-12-07T00:18:15;19.77;;;17.70;;
62673;SDS011;62269;47.594;17.638;2022-12-07T00:19:03;19.67;;;17.58;;
62673;SDS011;62269;47.594;17.638;2022-12-07T00:19:50;19.87;;;16.73;;
62673;SDS011;62269;47.594;17.638;2022-12-07T00:20:37;19.23;;;17.23;;
62673;SDS011;62269;47.594;17.638;2022-12-07T00:21:25;19.35;;;17.37;;
62673;SDS011;62269;47.594;17.638;2022-12-07T00:22:13;19.83;;;16.52;;
62673;SDS011;62269;47.594;17.638;2022-12-07T00:23:00;19.87;;;16.90;;
62673;SDS011;62269;47.594;17.638;2022-12-07T00:23:48;20.83;;;18.00;;
62673;SDS011;62269;47.594;17.638;2022-12-07T00:24:36;19.62;;;17.62;;
62673;SDS011;62269;47.594;17.638;2022-12-07T00:25:23;18.67;;;16.67;;
62673;SDS011;62269;47.594;17.638;2022-12-07T00:26:11;18.40;;;16.52;;
62673;SDS011;62269;47.594;17.638;2022-12-07T00:26:59;19.58;;;17.48;;
62673;SDS011;62269;47.594;17.638;2022-12-07T00:27:46;18.37;;;16.50;;
62673;SDS011;62269;47.594;17.638;2022-12-07T00:28:33;19.40;;;17.12;;
62673;SDS011;62269;47.594;17.638;2022-12-07T00:29:20;18.80;;;16.77;;
62673;SDS011;62269;47.594;17.638;2022-12-07T00:30:10;19.67;;;17.60;;
62673;SDS011;62269;47.594;17.638;2022-12-07T00:31:03;20.55;;;16.87;;
62673;SDS011;62269;47.594;17.638;2022-12-07T00:31:51;18.92;;;17.02;;
62673;SDS011;62269;47.594;17.638;2022-12-07T00:32:38;19.73;;;17.67;;
62673;SDS011;62269;47.594;17.638;2022-12-07T00:33:25;18.52;;;16.55;;
62673;SDS011;62269;47.594;17.638;2022-12-07T00:34:16;19.25;;;17.35;;
62673;SDS011;62269;47.594;17.638;2022-12-07T00:35:04;19.58;;;17.48;;
62673;SDS011;62269;47.594;17.638;2022-12-07T00:35:57;19.65;;;17.55;;
62673;SDS011;62269;47.594;17.638;2022-12-07T00:36:44;19.50;;;17.45;;
62673;SDS011;62269;47.594;17.638;2022-12-07T00:37:31;18.60;;;16.65;;
62673;SDS011;62269;47.594;17.638;2022-12-07T00:38:18;18.90;;;16.73;;
62673;SDS011;62269;47.594;17.638;2022-12-07T00:39:05;19.48;;;17.48;;
62673;SDS011;62269;47.594;17.638;2022-12-07T00:39:52;19.10;;;17.12;;
62673;SDS011;62269;47.594;17.638;2022-12-07T00:40:38;18.77;;;16.90;;
62673;SDS011;62269;47.594;17.638;2022-12-07T00:41:26;20.70;;;17.77;;
62673;SDS011;62269;47.594;17.638;2022-12-07T00:42:13;19.23;;;17.23;;
62673;SDS011;62269;47.594;17.638;2022-12-07T00:43:00;19.98;;;17.70;;
62673;SDS011;62269;47.594;17.638;2022-12-07T00:43:47;19.62;;;17.62;;
62673;SDS011;62269;47.594;17.638;2022-12-07T00:44:35;20.30;;;17.65;;
62673;SDS011;62269;47.594;17.638;2022-12-07T00:45:22;20.98;;;18.75;;
62673;SDS011;62269;47.594;17.638;2022-12-07T00:46:09;19.70;;;17.62;;
62673;SDS011;62269;47.594;17.638;2022-12-07T00:46:56;20.92;;;18.83;;
62673;SDS011;62269;47.594;17.638;2022-12-07T00:47:43;19.67;;;17.60;;
62673;SDS011;62269;47.594;17.638;2022-12-07T00:48:30;19.45;;;17.40;;
62673;SDS011;62269;47.594;17.638;2022-12-07T00:49:17;21.27;;;18.98;;
62673;SDS011;62269;47.594;17.638;2022-12-07T00:50:04;22.20;;;19.90;;
62673;SDS011;62269;47.594;17.638;2022-12-07T00:50:51;19.20;;;17.23;;
62673;SDS011;62269;47.594;17.638;2022-12-07T00:51:38;20.08;;;17.98;;
62673;SDS011;62269;47.594;17.638;2022-12-07T00:52:25;20.10;;;18.00;;
62673;SDS011;62269;47.594;17.638;2022-12-07T00:53:12;20.10;;;18.10;;
62673;SDS011;62269;47.594;17.638;2022-12-07T00:53:59;20.52;;;18.37;;
62673;SDS011;62269;47.594;17.638;2022-12-07T00:54:46;20.67;;;18.37;;
62673;SDS011;62269;47.594;17.638;2022-12-07T00:55:34;20.88;;;18.67;;
62673;SDS011;62269;47.594;17.638;2022-12-07T00:56:22;21.40;;;19.10;;
62673;SDS011;62269;47.594;17.638;2022-12-07T00:57:11;22.45;;;18.12;;
62673;SDS011;62269;47.594;17.638;2022-12-07T00:57:58;20.02;;;17.52;;
62673;SDS011;62269;47.594;17.638;2022-12-07T00:58:52;19.55;;;17.37;;
62673;SDS011;62269;47.594;17.638;2022-12-07T00:59:39;20.83;;;17.98;;
62673;SDS011;62269;47.594;17.638;2022-12-07T01:00:26;20.62;;;18.00;;
62673;SDS011;62269;47.594;17.638;2022-12-07T01:01:13;20.77;;;18.10;;
62673;SDS011;62269;47.594;17.638;2022-12-07T01:01:59;21.77;;;18.92;;
62673;SDS011;62269;47.594;17.638;2022-12-07T01:02:46;19.55;;;17.58;;
62673;SDS011;62269;47.594;17.638;2022-12-07T01:03:34;20.27;;;18.08;;
62673;SDS011;62269;47.594;17.638;2022-12-07T01:04:21;20.85;;;18.65;;
62673;SDS011;62269;47.594;17.638;2022-12-07T01:05:08;21.55;;;19.25;;
62673;SDS011;62269;47.594;17.638;2022-12-07T01:05:55;19.45;;;17.45;;
62673;SDS011;62269;47.594;17.638;2022-12-07T01:06:42;21.02;;;18.80;;
62673;SDS011;62269;47.594;17.638;2022-12-07T01:07:29;21.95;;;19.35;;
62673;SDS011;62269;47.594;17.638;2022-12-07T01:08:16;20.08;;;18.10;;
62673;SDS011;62269;47.594;17.638;2022-12-07T01:09:03;19.62;;;17.62;;
62673;SDS011;62269;47.594;17.638;2022-12-07T01:09:51;21.08;;;18.87;;
62673;SDS011;62269;47.594;17.638;2022-12-07T01:10:38;21.27;;;19.08;;
62673;SDS011;62269;47.594;17.638;2022-12-07T01:11:26;20.90;;;18.70;;
62673;SDS011;62269;47.594;17.638;2022-12-07T01:12:14;21.87;;;19.05;;
62673;SDS011;62269;47.594;17.638;2022-12-07T01:13:01;21.27;;;18.70;;
62673;SDS011;62269;47.594;17.638;2022-12-07T01:13:51;21.73;;;19.42;;
62673;SDS011;62269;47.594;17.638;2022-12-07T01:14:41;22.40;;;19.12;;
62673;SDS011;62269;47.594;17.638;2022-12-07T01:15:28;21.80;;;19.50;;
62673;SDS011;62269;47.594;17.638;2022-12-07T01:16:15;21.52;;;19.20;;
62673;SDS011;62269;47.594;17.638;2022-12-07T01:17:03;19.90;;;17.80;;
62673;SDS011;62269;47.594;17.638;2022-12-07T01:17:50;21.48;;;19.27;;
62673;SDS011;62269;47.594;17.638;2022-12-07T01:18:37;20.52;;;18.37;;
62673;SDS011;62269;47.594;17.638;2022-12-07T01:19:24;21.08;;;18.92;;
62673;SDS011;62269;47.594;17.638;2022-12-07T01:20:11;20.88;;;18.77;;
62673;SDS011;62269;47.594;17.638;2022-12-07T01:21:06;22.37;;;20.08;;
62673;SDS011;62269;47.594;17.638;2022-12-07T01:21:53;20.33;;;18.15;;
62673;SDS011;62269;47.594;17.638;2022-12-07T01:22:40;21.05;;;18.75;;
62673;SDS011;62269;47.594;17.638;2022-12-07T01:23:28;21.60;;;18.33;;
62673;SDS011;62269;47.594;17.638;2022-12-07T01:24:15;20.50;;;18.30;;
62673;SDS011;62269;47.594;17.638;2022-12-07T01:25:03;21.58;;;19.27;;
62673;SDS011;62269;47.594;17.638;2022-12-07T01:25:54;20.73;;;18.62;;
62673;SDS011;62269;47.594;17.638;2022-12-07T01:26:42;20.33;;;17.92;;
62673;SDS011;62269;47.594;17.638;2022-12-07T01:27:29;20.95;;;18.85;;
62673;SDS011;62269;47.594;17.638;2022-12-07T01:28:16;21.52;;;19.40;;
62673;SDS011;62269;47.594;17.638;2022-12-07T01:29:02;20.48;;;18.33;;
62673;SDS011;62269;47.594;17.638;2022-12-07T01:29:50;21.55;;;19.35;;
62673;SDS011;62269;47.594;17.638;2022-12-07T01:30:37;21.27;;;18.90;;
62673;SDS011;62269;47.594;17.638;2022-12-07T01:31:25;21.70;;;19.40;;
62673;SDS011;62269;47.594;17.638;2022-12-07T01:32:13;22.92;;;20.33;;
62673;SDS011;62269;47.594;17.638;2022-12-07T01:33:00;20.98;;;18.85;;
62673;SDS011;62269;47.594;17.638;2022-12-07T01:33:48;21.10;;;18.90;;
62673;SDS011;62269;47.594;17.638;2022-12-07T01:34:36;22.20;;;19.90;;
62673;SDS011;62269;47.594;17.638;2022-12-07T01:35:23;22.27;;;19.87;;
62673;SDS011;62269;47.594;17.638;2022-12-07T01:37:04;20.70;;;18.55;;
62673;SDS011;62269;47.594;17.638;2022-12-07T01:37:51;21.08;;;18.77;;
62673;SDS011;62269;47.594;17.638;2022-12-07T01:38:38;21.67;;;19.33;;
62673;SDS011;62269;47.594;17.638;2022-12-07T01:39:25;21.37;;;19.08;;
62673;SDS011;62269;47.594;17.638;2022-12-07T01:40:13;20.73;;;18.62;;
62673;SDS011;62269;47.594;17.638;2022-12-07T01:41:00;21.45;;;19.25;;
62673;SDS011;62269;47.594;17.638;2022-12-07T01:41:48;21.33;;;19.12;;
62673;SDS011;62269;47.594;17.638;2022-12-07T01:42:35;21.00;;;18.77;;
62673;SDS011;62269;47.594;17.638;2022-12-07T01:43:22;24.73;;;20.98;;
62673;SDS011;62269;47.594;17.638;2022-12-07T01:44:15;21.58;;;19.45;;
62673;SDS011;62269;47.594;17.638;2022-12-07T01:46:20;22.52;;;19.58;;
62673;SDS011;62269;47.594;17.638;2022-12-07T01:47:07;20.40;;;18.35;;
62673;SDS011;62269;47.594;17.638;2022-12-07T01:47:55;21.83;;;19.17;;
62673;SDS011;62269;47.594;17.638;2022-12-07T01:48:43;21.55;;;19.30;;
62673;SDS011;62269;47.594;17.638;2022-12-07T01:49:40;20.52;;;18.15;;
62673;SDS011;62269;47.594;17.638;2022-12-07T01:50:32;21.77;;;18.75;;
62673;SDS011;62269;47.594;17.638;2022-12-07T01:51:20;21.05;;;18.60;;
62673;SDS011;62269;47.594;17.638;2022-12-07T01:52:10;22.00;;;19.58;;
62673;SDS011;62269;47.594;17.638;2022-12-07T01:53:01;20.77;;;18.58;;
62673;SDS011;62269;47.594;17.638;2022-12-07T01:53:50;22.73;;;19.52;;
62673;SDS011;62269;47.594;17.638;2022-12-07T01:54:37;21.95;;;19.73;;
62673;SDS011;62269;47.594;17.638;2022-12-07T01:55:24;22.40;;;20.10;;
62673;SDS011;62269;47.594;17.638;2022-12-07T01:56:13;21.08;;;18.83;;
62673;SDS011;62269;47.594;17.638;2022-12-07T01:57:49;23.30;;;19.65;;
62673;SDS011;62269;47.594;17.638;2022-12-07T01:58:37;23.48;;;20.10;;
62673;SDS011;62269;47.594;17.638;2022-12-07T01:59:24;22.25;;;19.95;;
62673;SDS011;62269;47.594;17.638;2022-12-07T02:00:12;22.25;;;19.92;;
62673;SDS011;62269;47.594;17.638;2022-12-07T02:00:59;23.45;;;20.42;;
62673;SDS011;62269;47.594;17.638;2022-12-07T02:01:47;22.33;;;20.02;;
62673;SDS011;62269;47.594;17.638;2022-12-07T02:02:35;23.87;;;19.87;;
62673;SDS011;62269;47.594;17.638;2022-12-07T02:03:39;24.85;;;20.50;;
62673;SDS011;62269;47.594;17.638;2022-12-07T02:04:28;23.35;;;19.85;;
62673;SDS011;62269;47.594;17.638;2022-12-07T02:05:15;23.17;;;20.77;;
62673;SDS011;62269;47.594;17.638;2022-12-07T02:06:04;22.80;;;20.12;;
62673;SDS011;62269;47.594;17.638;2022-12-07T02:06:52;25.52;;;21.62;;
62673;SDS011;62269;47.594;17.638;2022-12-07T02:07:40;26.05;;;21.62;;
62673;SDS011;62269;47.594;17.638;2022-12-07T02:08:27;24.30;;;21.70;;
62673;SDS011;62269;47.594;17.638;2022-12-07T02:09:15;24.85;;;22.20;;
62673;SDS011;62269;47.594;17.638;2022-12-07T02:10:12;24.80;;;22.15;;
62673;SDS011;62269;47.594;17.638;2022-12-07T02:11:03;24.65;;;21.95;;
62673;SDS011;62269;47.594;17.638;2022-12-07T02:11:50;27.65;;;22.50;;
62673;SDS011;62269;47.594;17.638;2022-12-07T02:12:38;26.70;;;23.00;;
62673;SDS011;62269;47.594;17.638;2022-12-07T02:13:26;25.83;;;21.15;;
62673;SDS011;62269;47.594;17.638;2022-12-07T02:14:15;24.33;;;21.65;;
62673;SDS011;62269;47.594;17.638;2022-12-07T02:15:02;27.25;;;22.42;;
62673;SDS011;62269;47.594;17.638;2022-12-07T02:15:57;26.42;;;23.10;;
62673;SDS011;62269;47.594;17.638;2022-12-07T02:16:56;27.35;;;21.85;;
62673;SDS011;62269;47.594;17.638;2022-12-07T02:18:14;25.42;;;21.17;;
62673;SDS011;62269;47.594;17.638;2022-12-07T02:19:19;26.73;;;21.48;;
62673;SDS011;62269;47.594;17.638;2022-12-07T02:21:25;33.08;;;23.00;;
62673;SDS011;62269;47.594;17.638;2022-12-07T02:22:42;27.37;;;22.33;;
62673;SDS011;62269;47.594;17.638;2022-12-07T02:25:13;29.05;;;21.33;;
62673;SDS011;62269;47.594;17.638;2022-12-07T02:29:19;28.65;;;22.80;;
62673;SDS011;62269;47.594;17.638;2022-12-07T02:30:20;27.83;;;22.33;;
62673;SDS011;62269;47.594;17.638;2022-12-07T02:31:09;27.13;;;21.77;;
62673;SDS011;62269;47.594;17.638;2022-12-07T02:32:07;30.17;;;23.58;;
62673;SDS011;62269;47.594;17.638;2022-12-07T02:33:08;26.87;;;21.90;;
62673;SDS011;62269;47.594;17.638;2022-12-07T02:36:08;32.10;;;23.38;;
62673;SDS011;62269;47.594;17.638;2022-12-07T02:37:02;27.77;;;22.55;;
62673;SDS011;62269;47.594;17.638;2022-12-07T02:38:16;27.67;;;21.98;;
62673;SDS011;62269;47.594;17.638;2022-12-07T02:39:59;26.35;;;22.20;;
62673;SDS011;62269;47.594;17.638;2022-12-07T02:41:58;29.10;;;22.48;;
62673;SDS011;62269;47.594;17.638;2022-12-07T02:42:51;26.05;;;21.10;;
62673;SDS011;62269;47.594;17.638;2022-12-07T02:43:43;28.35;;;23.25;;
62673;SDS011;62269;47.594;17.638;2022-12-07T02:44:33;30.77;;;23.30;;
62673;SDS011;62269;47.594;17.638;2022-12-07T02:45:21;30.83;;;22.30;;
62673;SDS011;62269;47.594;17.638;2022-12-07T02:46:20;29.75;;;23.02;;
62673;SDS011;62269;47.594;17.638;2022-12-07T02:47:09;28.77;;;22.85;;
62673;SDS011;62269;47.594;17.638;2022-12-07T02:47:58;29.00;;;24.02;;
62673;SDS011;62269;47.594;17.638;2022-12-07T02:48:46;31.90;;;23.83;;
62673;SDS011;62269;47.594;17.638;2022-12-07T02:49:33;29.73;;;21.80;;
62673;SDS011;62269;47.594;17.638;2022-12-07T02:50:20;29.73;;;21.62;;
62673;SDS011;62269;47.594;17.638;2022-12-07T02:51:07;27.08;;;21.98;;
62673;SDS011;62269;47.594;17.638;2022-12-07T02:51:54;29.90;;;23.73;;
62673;SDS011;62269;47.594;17.638;2022-12-07T02:52:41;30.33;;;23.05;;
62673;SDS011;62269;47.594;17.638;2022-12-07T02:53:29;28.98;;;22.60;;
62673;SDS011;62269;47.594;17.638;2022-12-07T02:54:17;31.30;;;23.58;;
62673;SDS011;62269;47.594;17.638;2022-12-07T02:55:05;28.90;;;23.67;;
62673;SDS011;62269;47.594;17.638;2022-12-07T02:55:53;34.00;;;23.02;;
62673;SDS011;62269;47.594;17.638;2022-12-07T03:00:29;30.05;;;22.27;;
62673;SDS011;62269;47.594;17.638;2022-12-07T03:01:23;32.92;;;24.15;;
62673;SDS011;62269;47.594;17.638;2022-12-07T03:03:35;32.92;;;24.27;;
62673;SDS011;62269;47.594;17.638;2022-12-07T03:06:49;29.63;;;23.48;;
62673;SDS011;62269;47.594;17.638;2022-12-07T03:08:55;28.52;;;21.98;;
62673;SDS011;62269;47.594;17.638;2022-12-07T03:09:57;30.85;;;22.58;;
62673;SDS011;62269;47.594;17.638;2022-12-07T03:13:04;32.25;;;23.05;;
62673;SDS011;62269;47.594;17.638;2022-12-07T03:15:38;27.08;;;21.98;;
62673;SDS011;62269;47.594;17.638;2022-12-07T03:16:45;31.37;;;22.05;;
62673;SDS011;62269;47.594;17.638;2022-12-07T03:17:45;27.87;;;21.65;;
62673;SDS011;62269;47.594;17.638;2022-12-07T03:18:37;28.10;;;22.67;;
62673;SDS011;62269;47.594;17.638;2022-12-07T03:19:27;30.52;;;22.55;;
62673;SDS011;62269;47.594;17.638;2022-12-07T03:20:15;32.95;;;23.70;;
62673;SDS011;62269;47.594;17.638;2022-12-07T03:21:09;29.87;;;22.52;;
62673;SDS011;62269;47.594;17.638;2022-12-07T03:22:06;32.25;;;23.40;;
62673;SDS011;62269;47.594;17.638;2022-12-07T03:22:55;29.00;;;22.48;;
62673;SDS011;62269;47.594;17.638;2022-12-07T03:23:44;31.02;;;22.60;;
62673;SDS011;62269;47.594;17.638;2022-12-07T03:24:37;31.62;;;23.50;;
62673;SDS011;62269;47.594;17.638;2022-12-07T03:25:37;29.70;;;22.00;;
62673;SDS011;62269;47.594;17.638;2022-12-07T03:26:31;33.67;;;24.58;;
62673;SDS011;62269;47.594;17.638;2022-12-07T03:27:22;32.03;;;24.23;;
62673;SDS011;62269;47.594;17.638;2022-12-07T03:28:17;33.03;;;23.60;;
62673;SDS011;62269;47.594;17.638;2022-12-07T03:29:07;31.62;;;23.48;;
62673;SDS011;62269;47.594;17.638;2022-12-07T03:31:01;31.45;;;22.90;;
62673;SDS011;62269;47.594;17.638;2022-12-07T03:31:53;30.55;;;23.38;;
62673;SDS011;62269;47.594;17.638;2022-12-07T03:33:34;31.83;;;23.20;;
62673;SDS011;62269;47.594;17.638;2022-12-07T03:34:29;29.85;;;22.30;;
62673;SDS011;62269;47.594;17.638;2022-12-07T03:35:45;30.02;;;23.15;;
62673;SDS011;62269;47.594;17.638;2022-12-07T03:36:50;33.00;;;23.33;;
62673;SDS011;62269;47.594;17.638;2022-12-07T03:38:04;27.83;;;21.67;;
62673;SDS011;62269;47.594;17.638;2022-12-07T03:39:03;32.70;;;23.20;;
62673;SDS011;62269;47.594;17.638;2022-12-07T03:40:08;29.23;;;22.55;;
62673;SDS011;62269;47.594;17.638;2022-12-07T03:41:28;30.27;;;21.65;;
62673;SDS011;62269;47.594;17.638;2022-12-07T03:42:17;33.47;;;23.00;;
62673;SDS011;62269;47.594;17.638;2022-12-07T03:43:04;30.83;;;22.77;;
62673;SDS011;62269;47.594;17.638;2022-12-07T03:43:52;30.05;;;22.17;;
62673;SDS011;62269;47.594;17.638;2022-12-07T03:44:40;31.50;;;22.75;;
62673;SDS011;62269;47.594;17.638;2022-12-07T03:45:31;32.00;;;22.77;;
62673;SDS011;62269;47.594;17.638;2022-12-07T03:46:35;29.35;;;22.37;;
62673;SDS011;62269;47.594;17.638;2022-12-07T03:47:48;29.33;;;21.25;;
62673;SDS011;62269;47.594;17.638;2022-12-07T03:48:46;31.00;;;21.95;;
62673;SDS011;62269;47.594;17.638;2022-12-07T03:49:48;31.08;;;21.87;;
62673;SDS011;62269;47.594;17.638;2022-12-07T03:50:41;29.63;;;21.37;;
62673;SDS011;62269;47.594;17.638;2022-12-07T03:51:41;30.80;;;22.23;;
62673;SDS011;62269;47.594;17.638;2022-12-07T03:52:47;28.85;;;21.17;;
62673;SDS011;62269;47.594;17.638;2022-12-07T03:53:52;29.35;;;21.20;;
62673;SDS011;62269;47.594;17.638;2022-12-07T03:55:51;28.83;;;21.40;;
62673;SDS011;62269;47.594;17.638;2022-12-07T03:56:39;29.10;;;20.70;;
62673;SDS011;62269;47.594;17.638;2022-12-07T03:57:27;29.33;;;21.17;;
62673;SDS011;62269;47.594;17.638;2022-12-07T03:58:16;29.75;;;22.23;;
62673;SDS011;62269;47.594;17.638;2022-12-07T03:59:06;30.12;;;21.05;;
62673;SDS011;62269;47.594;17.638;2022-12-07T03:59:54;28.17;;;21.77;;
62673;SDS011;62269;47.594;17.638;2022-12-07T04:00:41;27.67;;;20.58;;
62673;SDS011;62269;47.594;17.638;2022-12-07T04:01:29;27.98;;;21.23;;
62673;SDS011;62269;47.594;17.638;2022-12-07T04:02:16;30.00;;;21.95;;
62673;SDS011;62269;47.594;17.638;2022-12-07T04:03:03;27.58;;;21.83;;
62673;SDS011;62269;47.594;17.638;2022-12-07T04:03:50;28.95;;;22.65;;
62673;SDS011;62269;47.594;17.638;2022-12-07T04:04:37;26.90;;;21.30;;
62673;SDS011;62269;47.594;17.638;2022-12-07T04:05:24;26.92;;;20.10;;
62673;SDS011;62269;47.594;17.638;2022-12-07T04:06:11;28.30;;;21.80;;
62673;SDS011;62269;47.594;17.638;2022-12-07T04:06:58;27.77;;;21.37;;
62673;SDS011;62269;47.594;17.638;2022-12-07T04:07:45;26.50;;;21.02;;
62673;SDS011;62269;47.594;17.638;2022-12-07T04:08:32;26.73;;;20.37;;
62673;SDS011;62269;47.594;17.638;2022-12-07T04:09:19;26.67;;;21.27;;
62673;SDS011;62269;47.594;17.638;2022-12-07T04:10:06;26.87;;;20.40;;
62673;SDS011;62269;47.594;17.638;2022-12-07T04:10:53;26.25;;;20.73;;
62673;SDS011;62269;47.594;17.638;2022-12-07T04:11:40;26.67;;;20.62;;
62673;SDS011;62269;47.594;17.638;2022-12-07T04:12:27;27.50;;;21.52;;
62673;SDS011;62269;47.594;17.638;2022-12-07T04:13:14;25.70;;;20.40;;
62673;SDS011;62269;47.594;17.638;2022-12-07T04:14:00;26.85;;;20.65;;
62673;SDS011;62269;47.594;17.638;2022-12-07T04:15:06;25.70;;;20.65;;
62673;SDS011;62269;47.594;17.638;2022-12-07T04:15:53;26.35;;;19.87;;
62673;SDS011;62269;47.594;17.638;2022-12-07T04:16:40;25.23;;;20.83;;
62673;SDS011;62269;47.594;17.638;2022-12-07T04:17:30;26.42;;;21.35;;
62673;SDS011;62269;47.594;17.638;2022-12-07T04:18:17;26.00;;;20.62;;
62673;SDS011;62269;47.594;17.638;2022-12-07T04:19:03;25.55;;;20.52;;
62673;SDS011;62269;47.594;17.638;2022-12-07T04:19:50;25.42;;;20.48;;
62673;SDS011;62269;47.594;17.638;2022-12-07T04:20:37;25.27;;;20.42;;
62673;SDS011;62269;47.594;17.638;2022-12-07T04:21:24;25.08;;;20.23;;
62673;SDS011;62269;47.594;17.638;2022-12-07T04:22:11;24.98;;;19.60;;
62673;SDS011;62269;47.594;17.638;2022-12-07T04:22:58;27.37;;;20.90;;
62673;SDS011;62269;47.594;17.638;2022-12-07T04:23:45;26.37;;;20.75;;
62673;SDS011;62269;47.594;17.638;2022-12-07T04:24:32;25.80;;;20.52;;
62673;SDS011;62269;47.594;17.638;2022-12-07T04:25:19;25.73;;;20.15;;
62673;SDS011;62269;47.594;17.638;2022-12-07T04:26:06;26.37;;;19.77;;
62673;SDS011;62269;47.594;17.638;2022-12-07T04:26:53;30.77;;;21.98;;
62673;SDS011;62269;47.594;17.638;2022-12-07T04:27:40;27.37;;;20.75;;
62673;SDS011;62269;47.594;17.638;2022-12-07T04:28:27;22.98;;;18.98;;
62673;SDS011;62269;47.594;17.638;2022-12-07T04:29:14;24.55;;;19.70;;
62673;SDS011;62269;47.594;17.638;2022-12-07T04:30:02;23.60;;;19.42;;
62673;SDS011;62269;47.594;17.638;2022-12-07T04:30:49;25.70;;;20.90;;
62673;SDS011;62269;47.594;17.638;2022-12-07T04:31:36;24.42;;;19.65;;
62673;SDS011;62269;47.594;17.638;2022-12-07T04:32:23;25.52;;;21.10;;
62673;SDS011;62269;47.594;17.638;2022-12-07T04:33:11;29.80;;;20.35;;
62673;SDS011;62269;47.594;17.638;2022-12-07T04:33:57;27.85;;;21.62;;
62673;SDS011;62269;47.594;17.638;2022-12-07T04:34:44;26.35;;;21.02;;
62673;SDS011;62269;47.594;17.638;2022-12-07T04:35:34;25.23;;;20.63;;
62673;SDS011;62269;47.594;17.638;2022-12-07T04:36:21;23.48;;;18.60;;
62673;SDS011;62269;47.594;17.638;2022-12-07T04:37:08;24.00;;;19.37;;
62673;SDS011;62269;47.594;17.638;2022-12-07T04:37:55;26.10;;;19.40;;
62673;SDS011;62269;47.594;17.638;2022-12-07T04:38:42;26.58;;;20.25;;
62673;SDS011;62269;47.594;17.638;2022-12-07T04:39:30;25.25;;;20.67;;
62673;SDS011;62269;47.594;17.638;2022-12-07T04:40:18;24.65;;;20.58;;
62673;SDS011;62269;47.594;17.638;2022-12-07T04:41:08;24.30;;;19.65;;
62673;SDS011;62269;47.594;17.638;2022-12-07T04:41:55;24.23;;;19.15;;
62673;SDS011;62269;47.594;17.638;2022-12-07T04:42:42;25.40;;;20.27;;
62673;SDS011;62269;47.594;17.638;2022-12-07T04:43:29;25.90;;;21.15;;
62673;SDS011;62269;47.594;17.638;2022-12-07T04:44:16;24.83;;;20.12;;
62673;SDS011;62269;47.594;17.638;2022-12-07T04:45:04;22.98;;;18.62;;
62673;SDS011;62269;47.594;17.638;2022-12-07T04:45:52;25.00;;;20.02;;
62673;SDS011;62269;47.594;17.638;2022-12-07T04:46:39;23.83;;;18.80;;
62673;SDS011;62269;47.594;17.638;2022-12-07T04:47:26;23.80;;;18.87;;
62673;SDS011;62269;47.594;17.638;2022-12-07T04:48:13;26.02;;;19.60;;
62673;SDS011;62269;47.594;17.638;2022-12-07T04:49:00;25.52;;;20.35;;
62673;SDS011;62269;47.594;17.638;2022-12-07T04:49:47;28.48;;;20.65;;
62673;SDS011;62269;47.594;17.638;2022-12-07T04:50:34;26.05;;;19.87;;
62673;SDS011;62269;47.594;17.638;2022-12-07T04:51:23;25.65;;;19.90;;
62673;SDS011;62269;47.594;17.638;2022-12-07T04:52:11;27.92;;;20.88;;
62673;SDS011;62269;47.594;17.638;2022-12-07T04:52:58;26.77;;;20.77;;
62673;SDS011;62269;47.594;17.638;2022-12-07T04:53:45;24.58;;;18.90;;
62673;SDS011;62269;47.594;17.638;2022-12-07T04:54:32;24.95;;;19.12;;
62673;SDS011;62269;47.594;17.638;2022-12-07T04:55:19;24.05;;;19.50;;
62673;SDS011;62269;47.594;17.638;2022-12-07T04:56:06;25.37;;;19.40;;
62673;SDS011;62269;47.594;17.638;2022-12-07T04:56:53;24.52;;;19.65;;
62673;SDS011;62269;47.594;17.638;2022-12-07T04:57:40;26.52;;;20.25;;
62673;SDS011;62269;47.594;17.638;2022-12-07T04:58:27;26.27;;;19.85;;
62673;SDS011;62269;47.594;17.638;2022-12-07T04:59:14;23.25;;;18.85;;
62673;SDS011;62269;47.594;17.638;2022-12-07T05:00:02;24.67;;;18.80;;
62673;SDS011;62269;47.594;17.638;2022-12-07T05:00:50;23.25;;;18.60;;
62673;SDS011;62269;47.594;17.638;2022-12-07T05:01:41;24.33;;;19.40;;
62673;SDS011;62269;47.594;17.638;2022-12-07T05:02:28;24.65;;;19.30;;
62673;SDS011;62269;47.594;17.638;2022-12-07T05:03:15;24.05;;;18.62;;
62673;SDS011;62269;47.594;17.638;2022-12-07T05:04:02;23.70;;;19.40;;
62673;SDS011;62269;47.594;17.638;2022-12-07T05:04:50;24.10;;;19.33;;
62673;SDS011;62269;47.594;17.638;2022-12-07T05:05:39;22.45;;;18.62;;
62673;SDS011;62269;47.594;17.638;2022-12-07T05:06:28;25.55;;;19.30;;
62673;SDS011;62269;47.594;17.638;2022-12-07T05:07:15;24.85;;;18.85;;
62673;SDS011;62269;47.594;17.638;2022-12-07T05:08:02;24.10;;;18.48;;
62673;SDS011;62269;47.594;17.638;2022-12-07T05:08:49;25.00;;;20.50;;
62673;SDS011;62269;47.594;17.638;2022-12-07T05:09:36;23.92;;;19.10;;
62673;SDS011;62269;47.594;17.638;2022-12-07T05:10:23;24.23;;;19.20;;
62673;SDS011;62269;47.594;17.638;2022-12-07T05:11:10;23.65;;;19.55;;
62673;SDS011;62269;47.594;17.638;2022-12-07T05:12:20;23.20;;;18.92;;
62673;SDS011;62269;47.594;17.638;2022-12-07T05:13:07;27.65;;;19.77;;
62673;SDS011;62269;47.594;17.638;2022-12-07T05:13:55;23.23;;;18.37;;
62673;SDS011;62269;47.594;17.638;2022-12-07T05:14:42;24.33;;;18.80;;
62673;SDS011;62269;47.594;17.638;2022-12-07T05:15:29;22.62;;;18.83;;
62673;SDS011;62269;47.594;17.638;2022-12-07T05:16:16;24.40;;;19.65;;